sensor_id;sensor_type;location;lat;lon;timestamp;temperature;humidity
11824;DHT22;5969;50.780;7.726;2023-06-04T00:02:24;13.20;80.10
11824;DHT22;5969;50.780;7.726;2023-06-04T00:04:51;13.00;80.90
11824;DHT22;5969;50.780;7.726;2023-06-04T00:07:17;12.80;80.70
11824;DHT22;5969;50.780;7.726;2023-06-04T00:09:45;12.70;80.80
11824;DHT22;5969;50.780;7.726;2023-06-04T00:12:12;12.40;81.70
11824;DHT22;5969;50.780;7.726;2023-06-04T00:14:40;12.40;82.20
11824;DHT22;5969;50.780;7.726;2023-06-04T00:17:08;12.40;82.40
11824;DHT22;5969;50.780;7.726;2023-06-04T00:19:35;12.50;82.60
11824;DHT22;5969;50.780;7.726;2023-06-04T00:22:02;12.50;82.40
11824;DHT22;5969;50.780;7.726;2023-06-04T00:24:29;12.50;81.30
11824;DHT22;5969;50.780;7.726;2023-06-04T00:26:55;12.50;81.30
11824;DHT22;5969;50.780;7.726;2023-06-04T00:29:22;12.50;81.40
11824;DHT22;5969;50.780;7.726;2023-06-04T00:31:50;12.50;81.00
11824;DHT22;5969;50.780;7.726;2023-06-04T00:34:17;12.40;81.40
11824;DHT22;5969;50.780;7.726;2023-06-04T00:36:44;12.30;82.00
11824;DHT22;5969;50.780;7.726;2023-06-04T00:39:11;12.10;83.50
11824;DHT22;5969;50.780;7.726;2023-06-04T00:41:37;12.10;84.10
11824;DHT22;5969;50.780;7.726;2023-06-04T00:44:04;12.00;84.40
11824;DHT22;5969;50.780;7.726;2023-06-04T00:46:32;11.90;84.10
11824;DHT22;5969;50.780;7.726;2023-06-04T00:49:03;11.80;85.00
11824;DHT22;5969;50.780;7.726;2023-06-04T00:51:31;11.90;84.60
11824;DHT22;5969;50.780;7.726;2023-06-04T00:53:58;11.90;85.10
11824;DHT22;5969;50.780;7.726;2023-06-04T00:56:27;12.00;84.70
11824;DHT22;5969;50.780;7.726;2023-06-04T00:58:53;12.00;84.00
11824;DHT22;5969;50.780;7.726;2023-06-04T01:01:26;12.00;83.50
11824;DHT22;5969;50.780;7.726;2023-06-04T01:03:58;12.00;83.40
11824;DHT22;5969;50.780;7.726;2023-06-04T01:06:33;11.90;83.90
11824;DHT22;5969;50.780;7.726;2023-06-04T01:09:02;11.90;83.60
11824;DHT22;5969;50.780;7.726;2023-06-04T01:11:33;11.80;83.60
11824;DHT22;5969;50.780;7.726;2023-06-04T01:14:01;11.80;83.60
11824;DHT22;5969;50.780;7.726;2023-06-04T01:16:30;11.70;83.50
11824;DHT22;5969;50.780;7.726;2023-06-04T01:19:01;11.60;84.10
11824;DHT22;5969;50.780;7.726;2023-06-04T01:21:34;11.40;85.40
11824;DHT22;5969;50.780;7.726;2023-06-04T01:24:05;11.40;84.70
11824;DHT22;5969;50.780;7.726;2023-06-04T01:26:32;11.20;86.10
11824;DHT22;5969;50.780;7.726;2023-06-04T01:29:00;11.20;86.70
11824;DHT22;5969;50.780;7.726;2023-06-04T01:31:28;11.10;86.70
11824;DHT22;5969;50.780;7.726;2023-06-04T01:33:58;11.00;87.10
11824;DHT22;5969;50.780;7.726;2023-06-04T01:36:25;10.90;87.40
11824;DHT22;5969;50.780;7.726;2023-06-04T01:38:53;10.90;87.40
11824;DHT22;5969;50.780;7.726;2023-06-04T01:41:20;11.00;87.30
11824;DHT22;5969;50.780;7.726;2023-06-04T01:43:47;11.10;87.00
11824;DHT22;5969;50.780;7.726;2023-06-04T01:46:14;11.00;86.80
11824;DHT22;5969;50.780;7.726;2023-06-04T01:48:40;11.00;86.60
11824;DHT22;5969;50.780;7.726;2023-06-04T01:51:07;11.00;86.40
11824;DHT22;5969;50.780;7.726;2023-06-04T01:53:34;11.00;86.80
11824;DHT22;5969;50.780;7.726;2023-06-04T01:56:02;10.90;87.10
11824;DHT22;5969;50.780;7.726;2023-06-04T01:58:29;10.90;87.40
11824;DHT22;5969;50.780;7.726;2023-06-04T02:00:57;10.90;87.30
11824;DHT22;5969;50.780;7.726;2023-06-04T02:03:25;10.80;88.50
11824;DHT22;5969;50.780;7.726;2023-06-04T02:05:52;10.80;88.90
11824;DHT22;5969;50.780;7.726;2023-06-04T02:08:19;10.80;88.20
11824;DHT22;5969;50.780;7.726;2023-06-04T02:10:46;10.90;87.90
11824;DHT22;5969;50.780;7.726;2023-06-04T02:13:15;10.80;88.20
11824;DHT22;5969;50.780;7.726;2023-06-04T02:15:41;10.80;88.00
11824;DHT22;5969;50.780;7.726;2023-06-04T02:18:13;10.60;88.30
11824;DHT22;5969;50.780;7.726;2023-06-04T02:20:41;10.50;88.90
11824;DHT22;5969;50.780;7.726;2023-06-04T02:23:08;10.40;89.30
11824;DHT22;5969;50.780;7.726;2023-06-04T02:25:35;10.40;90.00
11824;DHT22;5969;50.780;7.726;2023-06-04T02:28:01;10.50;89.80
11824;DHT22;5969;50.780;7.726;2023-06-04T02:30:29;10.60;89.40
11824;DHT22;5969;50.780;7.726;2023-06-04T02:32:56;10.60;88.60
11824;DHT22;5969;50.780;7.726;2023-06-04T02:35:26;10.70;89.10
11824;DHT22;5969;50.780;7.726;2023-06-04T02:37:53;10.70;88.20
11824;DHT22;5969;50.780;7.726;2023-06-04T02:40:21;10.50;89.50
11824;DHT22;5969;50.780;7.726;2023-06-04T02:42:48;10.20;90.10
11824;DHT22;5969;50.780;7.726;2023-06-04T02:45:15;10.20;90.30
11824;DHT22;5969;50.780;7.726;2023-06-04T02:47:43;10.10;90.10
11824;DHT22;5969;50.780;7.726;2023-06-04T02:50:11;10.10;90.30
11824;DHT22;5969;50.780;7.726;2023-06-04T02:52:38;10.10;90.10
11824;DHT22;5969;50.780;7.726;2023-06-04T02:55:06;10.00;90.30
11824;DHT22;5969;50.780;7.726;2023-06-04T02:57:33;9.90;90.90
11824;DHT22;5969;50.780;7.726;2023-06-04T03:00:00;10.00;90.60
11824;DHT22;5969;50.780;7.726;2023-06-04T03:02:27;9.90;91.00
11824;DHT22;5969;50.780;7.726;2023-06-04T03:04:55;9.90;90.80
11824;DHT22;5969;50.780;7.726;2023-06-04T03:07:22;9.80;90.90
11824;DHT22;5969;50.780;7.726;2023-06-04T03:09:49;9.60;91.00
11824;DHT22;5969;50.780;7.726;2023-06-04T03:12:16;9.40;91.50
11824;DHT22;5969;50.780;7.726;2023-06-04T03:14:43;9.30;91.70
11824;DHT22;5969;50.780;7.726;2023-06-04T03:17:10;9.20;92.00
11824;DHT22;5969;50.780;7.726;2023-06-04T03:19:37;9.20;92.20
11824;DHT22;5969;50.780;7.726;2023-06-04T03:22:07;9.30;92.10
11824;DHT22;5969;50.780;7.726;2023-06-04T03:24:35;9.30;92.20
11824;DHT22;5969;50.780;7.726;2023-06-04T03:27:02;9.40;92.00
11824;DHT22;5969;50.780;7.726;2023-06-04T03:29:29;9.40;91.80
11824;DHT22;5969;50.780;7.726;2023-06-04T03:31:57;9.40;92.10
11824;DHT22;5969;50.780;7.726;2023-06-04T03:34:24;9.50;92.10
11824;DHT22;5969;50.780;7.726;2023-06-04T03:36:51;9.60;91.90
11824;DHT22;5969;50.780;7.726;2023-06-04T03:39:19;9.70;91.80
11824;DHT22;5969;50.780;7.726;2023-06-04T03:41:46;9.80;91.50
11824;DHT22;5969;50.780;7.726;2023-06-04T03:44:13;9.80;91.70
11824;DHT22;5969;50.780;7.726;2023-06-04T03:46:40;9.90;91.70
11824;DHT22;5969;50.780;7.726;2023-06-04T03:49:08;9.80;91.50
11824;DHT22;5969;50.780;7.726;2023-06-04T03:51:34;9.50;91.70
11824;DHT22;5969;50.780;7.726;2023-06-04T03:54:02;9.40;92.00
11824;DHT22;5969;50.780;7.726;2023-06-04T03:56:30;9.30;92.30
11824;DHT22;5969;50.780;7.726;2023-06-04T03:58:57;9.40;92.60
11824;DHT22;5969;50.780;7.726;2023-06-04T04:01:23;9.50;92.20
11824;DHT22;5969;50.780;7.726;2023-06-04T04:03:51;9.50;92.30
11824;DHT22;5969;50.780;7.726;2023-06-04T04:06:18;9.60;92.20
11824;DHT22;5969;50.780;7.726;2023-06-04T04:08:45;9.40;92.20
11824;DHT22;5969;50.780;7.726;2023-06-04T04:11:15;9.40;92.50
11824;DHT22;5969;50.780;7.726;2023-06-04T04:13:44;9.40;92.30
11824;DHT22;5969;50.780;7.726;2023-06-04T04:16:11;9.50;92.30
11824;DHT22;5969;50.780;7.726;2023-06-04T04:18:41;9.50;92.60
11824;DHT22;5969;50.780;7.726;2023-06-04T04:21:08;9.70;92.50
11824;DHT22;5969;50.780;7.726;2023-06-04T04:23:37;9.80;92.40
11824;DHT22;5969;50.780;7.726;2023-06-04T04:26:04;9.80;92.40
11824;DHT22;5969;50.780;7.726;2023-06-04T04:28:31;9.70;92.70
11824;DHT22;5969;50.780;7.726;2023-06-04T04:31:01;9.50;92.50
11824;DHT22;5969;50.780;7.726;2023-06-04T04:33:28;9.40;93.00
11824;DHT22;5969;50.780;7.726;2023-06-04T04:35:58;9.40;92.80
11824;DHT22;5969;50.780;7.726;2023-06-04T04:38:24;9.50;92.90
11824;DHT22;5969;50.780;7.726;2023-06-04T04:40:51;9.60;93.00
11824;DHT22;5969;50.780;7.726;2023-06-04T04:43:28;9.80;92.90
11824;DHT22;5969;50.780;7.726;2023-06-04T04:45:55;10.00;92.20
11824;DHT22;5969;50.780;7.726;2023-06-04T04:48:24;10.10;92.10
11824;DHT22;5969;50.780;7.726;2023-06-04T04:50:51;10.20;91.80
11824;DHT22;5969;50.780;7.726;2023-06-04T04:53:17;10.30;91.70
11824;DHT22;5969;50.780;7.726;2023-06-04T04:55:44;10.40;91.60
11824;DHT22;5969;50.780;7.726;2023-06-04T04:58:11;10.50;91.50
11824;DHT22;5969;50.780;7.726;2023-06-04T05:00:38;10.60;91.40
11824;DHT22;5969;50.780;7.726;2023-06-04T05:03:05;10.70;91.40
11824;DHT22;5969;50.780;7.726;2023-06-04T05:05:33;10.80;91.20
11824;DHT22;5969;50.780;7.726;2023-06-04T05:08:00;10.90;91.10
11824;DHT22;5969;50.780;7.726;2023-06-04T05:10:26;11.00;90.90
11824;DHT22;5969;50.780;7.726;2023-06-04T05:12:54;11.10;90.80
11824;DHT22;5969;50.780;7.726;2023-06-04T05:15:21;11.10;90.90
11824;DHT22;5969;50.780;7.726;2023-06-04T05:17:50;11.20;90.80
11824;DHT22;5969;50.780;7.726;2023-06-04T05:20:17;11.30;90.70
11824;DHT22;5969;50.780;7.726;2023-06-04T05:22:46;11.30;90.50
11824;DHT22;5969;50.780;7.726;2023-06-04T05:25:13;11.40;90.10
11824;DHT22;5969;50.780;7.726;2023-06-04T05:27:40;11.50;90.10
11824;DHT22;5969;50.780;7.726;2023-06-04T05:30:09;11.50;90.00
11824;DHT22;5969;50.780;7.726;2023-06-04T05:32:36;11.60;90.00
11824;DHT22;5969;50.780;7.726;2023-06-04T05:35:06;11.70;89.50
11824;DHT22;5969;50.780;7.726;2023-06-04T05:37:34;11.80;89.60
11824;DHT22;5969;50.780;7.726;2023-06-04T05:40:02;11.90;89.10
11824;DHT22;5969;50.780;7.726;2023-06-04T05:42:29;12.00;89.10
11824;DHT22;5969;50.780;7.726;2023-06-04T05:44:55;12.10;88.80
11824;DHT22;5969;50.780;7.726;2023-06-04T05:47:22;12.20;88.50
11824;DHT22;5969;50.780;7.726;2023-06-04T05:49:50;12.30;88.60
11824;DHT22;5969;50.780;7.726;2023-06-04T05:52:17;12.40;88.00
11824;DHT22;5969;50.780;7.726;2023-06-04T05:54:43;12.50;88.20
11824;DHT22;5969;50.780;7.726;2023-06-04T05:57:12;12.60;87.70
11824;DHT22;5969;50.780;7.726;2023-06-04T05:59:38;12.60;86.90
11824;DHT22;5969;50.780;7.726;2023-06-04T06:02:05;12.70;87.10
11824;DHT22;5969;50.780;7.726;2023-06-04T06:04:32;12.80;86.80
11824;DHT22;5969;50.780;7.726;2023-06-04T06:06:59;12.90;86.50
11824;DHT22;5969;50.780;7.726;2023-06-04T06:09:26;13.00;86.50
11824;DHT22;5969;50.780;7.726;2023-06-04T06:11:53;13.10;86.30
11824;DHT22;5969;50.780;7.726;2023-06-04T06:14:21;13.20;86.50
11824;DHT22;5969;50.780;7.726;2023-06-04T06:16:48;13.20;86.60
11824;DHT22;5969;50.780;7.726;2023-06-04T06:19:16;13.30;86.10
11824;DHT22;5969;50.780;7.726;2023-06-04T06:21:42;13.40;86.50
11824;DHT22;5969;50.780;7.726;2023-06-04T06:24:09;13.40;86.50
11824;DHT22;5969;50.780;7.726;2023-06-04T06:26:36;13.50;87.00
11824;DHT22;5969;50.780;7.726;2023-06-04T06:29:03;13.60;87.00
11824;DHT22;5969;50.780;7.726;2023-06-04T06:31:31;13.70;87.00
11824;DHT22;5969;50.780;7.726;2023-06-04T06:33:57;13.80;86.40
11824;DHT22;5969;50.780;7.726;2023-06-04T06:36:24;13.80;86.00
11824;DHT22;5969;50.780;7.726;2023-06-04T06:38:51;13.90;86.00
11824;DHT22;5969;50.780;7.726;2023-06-04T06:41:18;14.00;86.20
11824;DHT22;5969;50.780;7.726;2023-06-04T06:43:46;14.10;86.10
11824;DHT22;5969;50.780;7.726;2023-06-04T06:46:13;14.20;85.60
11824;DHT22;5969;50.780;7.726;2023-06-04T06:48:41;14.20;85.50
11824;DHT22;5969;50.780;7.726;2023-06-04T06:51:10;14.30;85.10
11824;DHT22;5969;50.780;7.726;2023-06-04T06:53:37;14.30;85.70
11824;DHT22;5969;50.780;7.726;2023-06-04T06:56:05;14.40;86.30
11824;DHT22;5969;50.780;7.726;2023-06-04T06:58:31;14.50;86.70
11824;DHT22;5969;50.780;7.726;2023-06-04T07:00:59;14.60;87.10
11824;DHT22;5969;50.780;7.726;2023-06-04T07:03:25;14.70;86.60
11824;DHT22;5969;50.780;7.726;2023-06-04T07:05:54;14.80;86.30
11824;DHT22;5969;50.780;7.726;2023-06-04T07:08:20;14.90;86.20
11824;DHT22;5969;50.780;7.726;2023-06-04T07:10:47;15.00;85.70
11824;DHT22;5969;50.780;7.726;2023-06-04T07:13:16;15.10;85.50
11824;DHT22;5969;50.780;7.726;2023-06-04T07:15:43;15.20;84.50
11824;DHT22;5969;50.780;7.726;2023-06-04T07:18:09;15.30;83.70
11824;DHT22;5969;50.780;7.726;2023-06-04T07:20:36;15.40;83.90
11824;DHT22;5969;50.780;7.726;2023-06-04T07:23:04;15.50;82.70
11824;DHT22;5969;50.780;7.726;2023-06-04T07:25:32;15.60;82.70
11824;DHT22;5969;50.780;7.726;2023-06-04T07:27:59;15.70;82.80
11824;DHT22;5969;50.780;7.726;2023-06-04T07:30:29;15.80;82.40
11824;DHT22;5969;50.780;7.726;2023-06-04T07:32:56;15.90;82.20
11824;DHT22;5969;50.780;7.726;2023-06-04T07:35:23;16.00;81.50
11824;DHT22;5969;50.780;7.726;2023-06-04T07:37:50;16.10;82.10
11824;DHT22;5969;50.780;7.726;2023-06-04T07:40:18;16.20;82.20
11824;DHT22;5969;50.780;7.726;2023-06-04T07:42:46;16.30;81.90
11824;DHT22;5969;50.780;7.726;2023-06-04T07:45:13;16.40;81.60
11824;DHT22;5969;50.780;7.726;2023-06-04T07:47:40;16.40;80.90
11824;DHT22;5969;50.780;7.726;2023-06-04T07:50:07;16.60;80.40
11824;DHT22;5969;50.780;7.726;2023-06-04T07:52:34;16.70;80.40
11824;DHT22;5969;50.780;7.726;2023-06-04T07:55:01;16.70;78.20
11824;DHT22;5969;50.780;7.726;2023-06-04T07:57:30;16.90;77.60
11824;DHT22;5969;50.780;7.726;2023-06-04T07:59:57;17.00;77.50
11824;DHT22;5969;50.780;7.726;2023-06-04T08:02:25;17.10;77.90
11824;DHT22;5969;50.780;7.726;2023-06-04T08:04:51;17.10;77.00
11824;DHT22;5969;50.780;7.726;2023-06-04T08:07:18;17.30;77.10
11824;DHT22;5969;50.780;7.726;2023-06-04T08:09:45;17.30;76.20
11824;DHT22;5969;50.780;7.726;2023-06-04T08:12:12;17.50;73.10
11824;DHT22;5969;50.780;7.726;2023-06-04T08:14:40;17.70;72.40
11824;DHT22;5969;50.780;7.726;2023-06-04T08:17:06;17.90;70.30
11824;DHT22;5969;50.780;7.726;2023-06-04T08:19:33;18.00;70.70
11824;DHT22;5969;50.780;7.726;2023-06-04T08:22:00;18.10;70.10
11824;DHT22;5969;50.780;7.726;2023-06-04T08:24:26;18.20;68.30
11824;DHT22;5969;50.780;7.726;2023-06-04T08:26:53;18.30;68.60
11824;DHT22;5969;50.780;7.726;2023-06-04T08:29:20;18.40;69.70
11824;DHT22;5969;50.780;7.726;2023-06-04T08:31:48;18.40;68.80
11824;DHT22;5969;50.780;7.726;2023-06-04T08:34:15;18.50;67.50
11824;DHT22;5969;50.780;7.726;2023-06-04T08:36:41;18.60;67.10
11824;DHT22;5969;50.780;7.726;2023-06-04T08:39:08;18.70;65.90
11824;DHT22;5969;50.780;7.726;2023-06-04T08:41:41;18.70;66.40
11824;DHT22;5969;50.780;7.726;2023-06-04T08:44:09;18.80;66.50
11824;DHT22;5969;50.780;7.726;2023-06-04T08:46:38;18.90;66.90
11824;DHT22;5969;50.780;7.726;2023-06-04T08:49:08;18.90;67.00
11824;DHT22;5969;50.780;7.726;2023-06-04T08:51:36;18.90;67.70
11824;DHT22;5969;50.780;7.726;2023-06-04T08:54:04;19.00;67.30
11824;DHT22;5969;50.780;7.726;2023-06-04T08:56:31;19.10;67.50
11824;DHT22;5969;50.780;7.726;2023-06-04T08:59:00;19.20;67.70
11824;DHT22;5969;50.780;7.726;2023-06-04T09:01:28;19.30;66.60
11824;DHT22;5969;50.780;7.726;2023-06-04T09:03:55;19.40;68.20
11824;DHT22;5969;50.780;7.726;2023-06-04T09:06:25;19.40;66.40
11824;DHT22;5969;50.780;7.726;2023-06-04T09:08:54;19.40;65.70
11824;DHT22;5969;50.780;7.726;2023-06-04T09:11:23;19.50;64.80
11824;DHT22;5969;50.780;7.726;2023-06-04T09:13:53;19.60;65.50
11824;DHT22;5969;50.780;7.726;2023-06-04T09:16:20;19.60;65.60
11824;DHT22;5969;50.780;7.726;2023-06-04T09:19:06;19.70;65.10
11824;DHT22;5969;50.780;7.726;2023-06-04T09:21:58;19.80;64.70
11824;DHT22;5969;50.780;7.726;2023-06-04T09:24:39;19.80;65.20
11824;DHT22;5969;50.780;7.726;2023-06-04T09:27:10;19.90;65.80
11824;DHT22;5969;50.780;7.726;2023-06-04T09:29:38;19.90;65.20
11824;DHT22;5969;50.780;7.726;2023-06-04T09:32:05;20.00;64.20
11824;DHT22;5969;50.780;7.726;2023-06-04T09:34:32;20.00;64.40
11824;DHT22;5969;50.780;7.726;2023-06-04T09:37:00;20.10;64.70
11824;DHT22;5969;50.780;7.726;2023-06-04T09:39:26;20.10;64.70
11824;DHT22;5969;50.780;7.726;2023-06-04T09:41:58;20.20;65.10
11824;DHT22;5969;50.780;7.726;2023-06-04T09:44:26;20.20;64.20
11824;DHT22;5969;50.780;7.726;2023-06-04T09:46:54;20.30;64.00
11824;DHT22;5969;50.780;7.726;2023-06-04T09:49:58;20.40;63.90
11824;DHT22;5969;50.780;7.726;2023-06-04T09:52:51;20.40;64.60
11824;DHT22;5969;50.780;7.726;2023-06-04T09:59:00;20.50;63.00
11824;DHT22;5969;50.780;7.726;2023-06-04T10:01:32;20.60;63.50
11824;DHT22;5969;50.780;7.726;2023-06-04T10:04:03;20.70;63.40
11824;DHT22;5969;50.780;7.726;2023-06-04T10:06:59;20.70;63.20
11824;DHT22;5969;50.780;7.726;2023-06-04T10:16:14;20.90;62.10
11824;DHT22;5969;50.780;7.726;2023-06-04T10:18:41;21.00;62.20
11824;DHT22;5969;50.780;7.726;2023-06-04T10:21:10;21.10;61.70
11824;DHT22;5969;50.780;7.726;2023-06-04T10:23:47;21.20;62.00
11824;DHT22;5969;50.780;7.726;2023-06-04T10:26:17;21.40;62.60
11824;DHT22;5969;50.780;7.726;2023-06-04T10:28:48;21.40;61.30
11824;DHT22;5969;50.780;7.726;2023-06-04T10:31:17;21.50;61.90
11824;DHT22;5969;50.780;7.726;2023-06-04T10:33:44;21.60;61.00
11824;DHT22;5969;50.780;7.726;2023-06-04T10:39:07;21.80;60.10
11824;DHT22;5969;50.780;7.726;2023-06-04T10:41:36;21.90;61.00
11824;DHT22;5969;50.780;7.726;2023-06-04T10:44:17;21.90;59.40
11824;DHT22;5969;50.780;7.726;2023-06-04T10:46:53;21.90;59.50
11824;DHT22;5969;50.780;7.726;2023-06-04T10:49:27;22.00;61.00
11824;DHT22;5969;50.780;7.726;2023-06-04T10:51:55;22.00;60.30
11824;DHT22;5969;50.780;7.726;2023-06-04T10:54:23;22.10;60.00
11824;DHT22;5969;50.780;7.726;2023-06-04T10:56:51;22.10;60.20
11824;DHT22;5969;50.780;7.726;2023-06-04T10:59:25;22.20;61.20
11824;DHT22;5969;50.780;7.726;2023-06-04T11:02:20;22.30;60.90
11824;DHT22;5969;50.780;7.726;2023-06-04T11:05:34;22.40;60.80
11824;DHT22;5969;50.780;7.726;2023-06-04T11:08:03;22.40;59.20
11824;DHT22;5969;50.780;7.726;2023-06-04T11:10:32;22.50;58.50
11824;DHT22;5969;50.780;7.726;2023-06-04T11:13:00;22.60;59.50
11824;DHT22;5969;50.780;7.726;2023-06-04T11:15:27;22.70;59.80
11824;DHT22;5969;50.780;7.726;2023-06-04T11:18:05;22.60;58.00
11824;DHT22;5969;50.780;7.726;2023-06-04T11:20:44;22.70;58.80
11824;DHT22;5969;50.780;7.726;2023-06-04T11:23:14;22.70;59.10
11824;DHT22;5969;50.780;7.726;2023-06-04T11:26:10;22.70;57.80
11824;DHT22;5969;50.780;7.726;2023-06-04T11:28:43;22.70;59.60
11824;DHT22;5969;50.780;7.726;2023-06-04T11:31:20;22.90;59.50
11824;DHT22;5969;50.780;7.726;2023-06-04T11:33:48;23.00;59.20
11824;DHT22;5969;50.780;7.726;2023-06-04T11:36:33;23.20;58.70
11824;DHT22;5969;50.780;7.726;2023-06-04T11:39:37;23.30;59.20
11824;DHT22;5969;50.780;7.726;2023-06-04T11:42:18;23.30;59.70
11824;DHT22;5969;50.780;7.726;2023-06-04T11:45:06;23.40;59.30
11824;DHT22;5969;50.780;7.726;2023-06-04T11:57:58;23.80;58.30
11824;DHT22;5969;50.780;7.726;2023-06-04T12:00:31;24.00;58.30
11824;DHT22;5969;50.780;7.726;2023-06-04T12:03:26;24.00;56.50
11824;DHT22;5969;50.780;7.726;2023-06-04T12:05:57;24.00;58.90
11824;DHT22;5969;50.780;7.726;2023-06-04T12:08:55;24.10;57.40
11824;DHT22;5969;50.780;7.726;2023-06-04T12:11:37;24.30;56.60
11824;DHT22;5969;50.780;7.726;2023-06-04T12:14:15;24.40;57.20
11824;DHT22;5969;50.780;7.726;2023-06-04T12:17:01;24.10;55.80
11824;DHT22;5969;50.780;7.726;2023-06-04T12:19:28;24.40;57.10
11824;DHT22;5969;50.780;7.726;2023-06-04T12:21:59;24.60;57.30
11824;DHT22;5969;50.780;7.726;2023-06-04T12:24:31;24.50;54.10
11824;DHT22;5969;50.780;7.726;2023-06-04T12:27:06;24.30;53.90
11824;DHT22;5969;50.780;7.726;2023-06-04T12:29:37;24.30;57.60
11824;DHT22;5969;50.780;7.726;2023-06-04T12:35:19;24.50;55.40
11824;DHT22;5969;50.780;7.726;2023-06-04T12:37:46;24.60;55.60
11824;DHT22;5969;50.780;7.726;2023-06-04T12:40:15;24.70;56.00
11824;DHT22;5969;50.780;7.726;2023-06-04T12:42:43;24.80;55.70
11824;DHT22;5969;50.780;7.726;2023-06-04T12:45:12;25.00;55.60
11824;DHT22;5969;50.780;7.726;2023-06-04T12:47:40;25.10;55.30
11824;DHT22;5969;50.780;7.726;2023-06-04T12:50:08;25.30;55.90
11824;DHT22;5969;50.780;7.726;2023-06-04T12:52:35;25.40;54.00
11824;DHT22;5969;50.780;7.726;2023-06-04T12:55:02;25.30;53.80
11824;DHT22;5969;50.780;7.726;2023-06-04T12:57:30;25.60;54.70
11824;DHT22;5969;50.780;7.726;2023-06-04T12:59:58;25.80;54.60
11824;DHT22;5969;50.780;7.726;2023-06-04T13:02:26;25.80;54.70
11824;DHT22;5969;50.780;7.726;2023-06-04T13:04:53;25.90;54.90
11824;DHT22;5969;50.780;7.726;2023-06-04T13:07:23;26.00;55.40
11824;DHT22;5969;50.780;7.726;2023-06-04T13:09:50;26.10;55.20
11824;DHT22;5969;50.780;7.726;2023-06-04T13:12:17;26.20;55.20
11824;DHT22;5969;50.780;7.726;2023-06-04T13:14:44;26.00;52.20
11824;DHT22;5969;50.780;7.726;2023-06-04T13:17:12;25.80;53.60
11824;DHT22;5969;50.780;7.726;2023-06-04T13:19:39;25.70;54.90
11824;DHT22;5969;50.780;7.726;2023-06-04T13:22:05;26.00;53.50
11824;DHT22;5969;50.780;7.726;2023-06-04T13:24:34;26.10;53.70
11824;DHT22;5969;50.780;7.726;2023-06-04T13:27:02;26.30;53.60
11824;DHT22;5969;50.780;7.726;2023-06-04T13:29:29;26.40;54.20
11824;DHT22;5969;50.780;7.726;2023-06-04T13:31:59;26.50;53.70
11824;DHT22;5969;50.780;7.726;2023-06-04T13:34:27;26.70;52.30
11824;DHT22;5969;50.780;7.726;2023-06-04T13:37:03;26.60;53.40
11824;DHT22;5969;50.780;7.726;2023-06-04T13:39:36;26.70;53.10
11824;DHT22;5969;50.780;7.726;2023-06-04T13:42:03;26.70;51.60
11824;DHT22;5969;50.780;7.726;2023-06-04T13:44:30;26.90;53.10
11824;DHT22;5969;50.780;7.726;2023-06-04T13:46:59;27.10;53.60
11824;DHT22;5969;50.780;7.726;2023-06-04T13:49:32;27.40;53.30
11824;DHT22;5969;50.780;7.726;2023-06-04T13:51:59;27.60;52.30
11824;DHT22;5969;50.780;7.726;2023-06-04T13:54:26;28.10;54.20
11824;DHT22;5969;50.780;7.726;2023-06-04T13:56:52;29.80;53.50
11824;DHT22;5969;50.780;7.726;2023-06-04T13:59:23;32.20;50.00
11824;DHT22;5969;50.780;7.726;2023-06-04T14:01:50;34.60;48.80
11824;DHT22;5969;50.780;7.726;2023-06-04T14:04:17;35.80;46.20
11824;DHT22;5969;50.780;7.726;2023-06-04T14:06:45;37.10;45.20
11824;DHT22;5969;50.780;7.726;2023-06-04T14:09:12;38.10;42.90
11824;DHT22;5969;50.780;7.726;2023-06-04T14:11:48;38.70;43.30
11824;DHT22;5969;50.780;7.726;2023-06-04T14:14:16;39.60;42.00
11824;DHT22;5969;50.780;7.726;2023-06-04T14:16:44;39.90;41.60
11824;DHT22;5969;50.780;7.726;2023-06-04T14:19:11;40.20;39.80
11824;DHT22;5969;50.780;7.726;2023-06-04T14:21:41;39.40;39.40
11824;DHT22;5969;50.780;7.726;2023-06-04T14:24:10;39.30;41.20
11824;DHT22;5969;50.780;7.726;2023-06-04T14:26:37;39.50;39.90
11824;DHT22;5969;50.780;7.726;2023-06-04T14:29:04;40.10;40.30
11824;DHT22;5969;50.780;7.726;2023-06-04T14:31:30;40.40;41.30
11824;DHT22;5969;50.780;7.726;2023-06-04T14:33:57;40.60;39.40
11824;DHT22;5969;50.780;7.726;2023-06-04T14:36:24;39.90;38.40
11824;DHT22;5969;50.780;7.726;2023-06-04T14:38:50;39.20;38.80
11824;DHT22;5969;50.780;7.726;2023-06-04T14:41:19;38.30;40.10
11824;DHT22;5969;50.780;7.726;2023-06-04T14:43:45;37.70;41.30
11824;DHT22;5969;50.780;7.726;2023-06-04T14:46:12;37.40;40.00
11824;DHT22;5969;50.780;7.726;2023-06-04T14:48:39;37.00;40.20
11824;DHT22;5969;50.780;7.726;2023-06-04T14:51:13;36.20;42.10
11824;DHT22;5969;50.780;7.726;2023-06-04T14:53:45;35.70;42.50
11824;DHT22;5969;50.780;7.726;2023-06-04T14:56:13;35.50;42.70
11824;DHT22;5969;50.780;7.726;2023-06-04T14:58:42;36.10;43.80
11824;DHT22;5969;50.780;7.726;2023-06-04T15:01:08;37.80;40.70
11824;DHT22;5969;50.780;7.726;2023-06-04T15:03:37;38.50;41.00
11824;DHT22;5969;50.780;7.726;2023-06-04T15:06:04;39.10;39.00
11824;DHT22;5969;50.780;7.726;2023-06-04T15:08:31;39.40;39.40
11824;DHT22;5969;50.780;7.726;2023-06-04T15:10:58;39.60;38.70
11824;DHT22;5969;50.780;7.726;2023-06-04T15:13:24;40.40;38.70
11824;DHT22;5969;50.780;7.726;2023-06-04T15:15:52;40.40;37.00
11824;DHT22;5969;50.780;7.726;2023-06-04T15:18:19;39.90;38.80
11824;DHT22;5969;50.780;7.726;2023-06-04T15:20:46;40.10;37.50
11824;DHT22;5969;50.780;7.726;2023-06-04T15:23:13;39.20;38.30
11824;DHT22;5969;50.780;7.726;2023-06-04T15:25:39;39.30;38.30
11824;DHT22;5969;50.780;7.726;2023-06-04T15:28:06;39.70;38.60
11824;DHT22;5969;50.780;7.726;2023-06-04T15:30:33;39.50;40.50
11824;DHT22;5969;50.780;7.726;2023-06-04T15:33:02;39.50;39.80
11824;DHT22;5969;50.780;7.726;2023-06-04T15:35:29;38.90;38.40
11824;DHT22;5969;50.780;7.726;2023-06-04T15:37:55;38.90;38.70
11824;DHT22;5969;50.780;7.726;2023-06-04T15:40:22;38.70;39.60
11824;DHT22;5969;50.780;7.726;2023-06-04T15:42:49;39.10;39.20
11824;DHT22;5969;50.780;7.726;2023-06-04T15:45:15;39.40;38.50
11824;DHT22;5969;50.780;7.726;2023-06-04T15:47:45;38.40;39.30
11824;DHT22;5969;50.780;7.726;2023-06-04T15:50:13;38.50;38.40
11824;DHT22;5969;50.780;7.726;2023-06-04T15:52:41;38.90;39.70
11824;DHT22;5969;50.780;7.726;2023-06-04T15:55:08;39.20;39.40
11824;DHT22;5969;50.780;7.726;2023-06-04T15:57:35;39.20;37.90
11824;DHT22;5969;50.780;7.726;2023-06-04T16:00:02;38.70;37.80
11824;DHT22;5969;50.780;7.726;2023-06-04T16:02:29;38.40;39.50
11824;DHT22;5969;50.780;7.726;2023-06-04T16:04:57;38.20;40.80
11824;DHT22;5969;50.780;7.726;2023-06-04T16:07:25;38.70;40.30
11824;DHT22;5969;50.780;7.726;2023-06-04T16:09:52;39.10;39.80
11824;DHT22;5969;50.780;7.726;2023-06-04T16:12:18;39.20;37.50
11824;DHT22;5969;50.780;7.726;2023-06-04T16:14:45;39.00;39.40
11824;DHT22;5969;50.780;7.726;2023-06-04T16:17:12;38.40;38.40
11824;DHT22;5969;50.780;7.726;2023-06-04T16:19:39;37.60;39.50
11824;DHT22;5969;50.780;7.726;2023-06-04T16:22:05;37.60;39.00
11824;DHT22;5969;50.780;7.726;2023-06-04T16:24:33;37.60;39.10
11824;DHT22;5969;50.780;7.726;2023-06-04T16:27:00;37.10;39.80